Time;durP1;ratioP1;P1;durP2;ratioP2;P2;SDS_P1;SDS_P2;PMS_P1;PMS_P2;Temp;Humidity;BMP_temperature;BMP_pressure;BME280_temperature;BME280_humidity;BME280_pressure;Samples;Min_cycle;Max_cycle;Signal;HPM_P1;HPM_P2
2023/06/24 00:00:46;;;;;;;;;;;;;;;27.05;46.41;100697.52;103492;1285;61410;-82
2023/06/24 00:03:16;;;;;;;;;;;;;;;27.05;46.50;100700.56;103448;1290;61407;-82
2023/06/24 00:05:43;;;;;;;;;;;;;;;27.05;46.40;100703.84;103364;1290;64792;-83
2023/06/24 00:08:08;;;;;;;;;;;;;;;27.04;46.33;100698.45;103481;1290;61308;-83
2023/06/24 00:10:34;;;;;;;;;;;;;;;27.04;46.50;100690.88;103365;1284;62468;-83
2023/06/24 00:13:01;;;;;;;;;;;;;;;27.04;46.47;100685.30;103375;1284;61411;-82
2023/06/24 00:15:27;;;;;;;;;;;;;;;27.04;46.31;100682.40;103422;1284;61569;-82
2023/06/24 00:17:52;;;;;;;;;;;;;;;27.04;46.20;100678.23;103496;1285;62483;-82
2023/06/24 00:20:19;;;;;;;;;;;;;;;27.04;46.50;100676.06;103393;1287;61463;-82
2023/06/24 00:22:48;;;;;;;;;;;;;;;27.04;46.42;100673.94;103265;1286;61368;-82
2023/06/24 00:25:14;;;;;;;;;;;;;;;27.04;46.34;100672.09;103497;1291;61385;-80
2023/06/24 00:27:40;;;;;;;;;;;;;;;27.04;46.50;100673.02;103285;1286;62375;-81
2023/06/24 00:30:06;;;;;;;;;;;;;;;27.04;46.34;100671.60;103412;1287;61330;-81
2023/06/24 00:32:31;;;;;;;;;;;;;;;27.03;46.37;100669.09;103442;1284;63485;-81
2023/06/24 00:34:59;;;;;;;;;;;;;;;27.04;46.53;100669.63;103457;1290;61470;-81
2023/06/24 00:37:25;;;;;;;;;;;;;;;27.03;46.41;100667.84;103305;1291;61998;-82
2023/06/24 00:39:51;;;;;;;;;;;;;;;27.03;46.37;100662.45;103517;1285;61422;-82
2023/06/24 00:42:17;;;;;;;;;;;;;;;27.03;46.47;100659.54;103482;1289;61424;-82
2023/06/24 00:44:42;;;;;;;;;;;;;;;27.03;46.56;100656.82;103519;1285;62502;-82
2023/06/24 00:47:10;;;;;;;;;;;;;;;27.03;46.37;100653.95;103494;1284;61738;-82
2023/06/24 00:49:36;;;;;;;;;;;;;;;27.03;46.51;100653.27;103417;1290;74582;-83
2023/06/24 00:52:02;;;;;;;;;;;;;;;27.03;46.51;100648.39;103405;1289;61364;-83
2023/06/24 00:54:30;;;;;;;;;;;;;;;27.03;46.39;100650.19;103489;1287;61389;-83
2023/06/24 00:56:56;;;;;;;;;;;;;;;27.03;46.35;100650.19;103392;1288;64881;-83
2023/06/24 00:59:22;;;;;;;;;;;;;;;27.03;46.53;100651.98;103561;1284;62398;-83
2023/06/24 01:01:49;;;;;;;;;;;;;;;27.03;46.39;100655.64;103415;1287;61398;-83
2023/06/24 01:04:16;;;;;;;;;;;;;;;27.03;46.44;100650.92;103280;1292;61846;-83
2023/06/24 01:06:44;;;;;;;;;;;;;;;27.03;46.41;100649.82;103499;1288;61392;-81
2023/06/24 01:09:10;;;;;;;;;;;;;;;27.03;46.51;100651.64;103494;1288;66787;-83
2023/06/24 01:11:35;;;;;;;;;;;;;;;27.03;46.47;100654.73;103467;1286;61504;-83
2023/06/24 01:14:01;;;;;;;;;;;;;;;27.02;46.67;100656.75;103368;1290;61391;-82
2023/06/24 01:16:29;;;;;;;;;;;;;;;27.02;46.39;100657.09;103336;1292;61464;-81
2023/06/24 01:18:58;;;;;;;;;;;;;;;27.02;46.43;100657.46;103413;1287;61342;-82
2023/06/24 01:21:29;;;;;;;;;;;;;;;27.03;46.51;100655.27;103415;1286;61368;-83
2023/06/24 01:24:24;;;;;;;;;;;;;;;27.03;46.46;100655.46;103375;1287;61982;-82
2023/06/24 01:26:49;;;;;;;;;;;;;;;27.02;46.55;100656.02;103195;1288;65064;-81
2023/06/24 01:29:15;;;;;;;;;;;;;;;27.03;46.72;100657.44;103355;1290;61405;-81
2023/06/24 01:31:40;;;;;;;;;;;;;;;27.02;46.69;100660.36;103411;1286;61724;-81
2023/06/24 01:34:12;;;;;;;;;;;;;;;27.03;46.40;100664.65;103336;1291;61405;-81
2023/06/24 01:36:38;;;;;;;;;;;;;;;27.02;46.43;100669.75;103419;1287;64836;-83
2023/06/24 01:39:04;;;;;;;;;;;;;;;27.02;46.45;100671.23;103423;1286;61474;-83
2023/06/24 01:41:32;;;;;;;;;;;;;;;27.02;46.65;100672.86;103408;1288;61328;-82
2023/06/24 01:43:57;;;;;;;;;;;;;;;27.02;46.79;100673.35;103351;1290;61357;-82
2023/06/24 01:46:23;;;;;;;;;;;;;;;27.02;46.70;100677.91;103343;1286;62333;-83
2023/06/24 01:48:51;;;;;;;;;;;;;;;27.02;46.80;100683.70;103366;1289;61477;-83
2023/06/24 01:51:20;;;;;;;;;;;;;;;27.02;46.61;100685.33;103330;1287;61656;-83
2023/06/24 01:53:50;;;;;;;;;;;;;;;27.02;46.55;100685.15;103311;1292;62295;-82
2023/06/24 01:56:15;;;;;;;;;;;;;;;27.02;46.67;100690.05;103426;1287;64734;-83
2023/06/24 01:58:41;;;;;;;;;;;;;;;27.02;46.77;100696.55;103157;1286;61403;-82
2023/06/24 02:01:06;;;;;;;;;;;;;;;27.02;46.80;100700.72;103381;1290;62633;-82
2023/06/24 02:03:33;;;;;;;;;;;;;;;27.01;46.73;100705.30;103325;1285;61402;-82
2023/06/24 02:05:58;;;;;;;;;;;;;;;27.02;46.63;100705.94;103404;1289;61388;-82
2023/06/24 02:08:24;;;;;;;;;;;;;;;27.01;46.68;100709.59;103363;1287;61285;-82
2023/06/24 02:10:50;;;;;;;;;;;;;;;27.01;46.82;100713.60;103426;1287;61386;-82
2023/06/24 02:13:15;;;;;;;;;;;;;;;27.01;46.80;100721.55;103188;1293;61430;-82
2023/06/24 02:15:41;;;;;;;;;;;;;;;27.00;46.74;100721.77;103374;1287;61409;-82
2023/06/24 02:18:07;;;;;;;;;;;;;;;27.01;46.67;100726.09;103377;1291;61420;-82
2023/06/24 02:20:32;;;;;;;;;;;;;;;27.01;46.79;100729.67;103408;1287;61450;-82
2023/06/24 02:22:58;;;;;;;;;;;;;;;27.01;46.93;100732.38;103219;1286;61830;-82
2023/06/24 02:25:23;;;;;;;;;;;;;;;27.01;46.83;100736.91;103355;1292;61855;-82
2023/06/24 02:27:49;;;;;;;;;;;;;;;27.00;46.76;100742.95;103384;1287;61384;-82
2023/06/24 02:30:14;;;;;;;;;;;;;;;27.00;46.90;100746.79;103393;1286;62380;-83
2023/06/24 02:32:40;;;;;;;;;;;;;;;27.00;46.78;100753.57;103426;1287;62499;-83
2023/06/24 02:35:07;;;;;;;;;;;;;;;27.00;46.86;100757.93;103418;1287;61377;-82
2023/06/24 02:37:32;;;;;;;;;;;;;;;27.00;46.90;100755.05;103379;1286;61949;-82
2023/06/24 02:39:58;;;;;;;;;;;;;;;27.00;46.93;100750.17;103377;1287;61367;-83
2023/06/24 02:42:23;;;;;;;;;;;;;;;27.00;46.96;100754.52;103384;1292;61326;-82
2023/06/24 02:44:49;;;;;;;;;;;;;;;27.00;46.80;100758.30;103403;1287;61416;-82
2023/06/24 02:47:15;;;;;;;;;;;;;;;27.00;46.76;100759.56;103329;1287;61380;-82
2023/06/24 02:49:41;;;;;;;;;;;;;;;27.00;46.88;100763.89;103424;1288;61331;-82
2023/06/24 02:52:06;;;;;;;;;;;;;;;27.00;46.93;100767.35;103349;1287;61797;-82
2023/06/24 02:54:32;;;;;;;;;;;;;;;27.00;46.91;100770.95;103319;1287;62630;-83
2023/06/24 02:56:57;;;;;;;;;;;;;;;27.00;46.89;100776.39;103328;1292;61372;-82
2023/06/24 02:59:23;;;;;;;;;;;;;;;27.00;46.89;100775.10;103499;1286;61410;-82
2023/06/24 03:01:49;;;;;;;;;;;;;;;27.00;47.00;100773.52;103385;1285;61444;-82
2023/06/24 03:04:15;;;;;;;;;;;;;;;27.00;46.93;100773.67;103432;1287;61411;-83
2023/06/24 03:06:40;;;;;;;;;;;;;;;27.00;46.84;100770.03;103334;1293;66181;-83
2023/06/24 03:09:07;;;;;;;;;;;;;;;27.00;46.90;100768.77;103393;1286;61498;-81
2023/06/24 03:11:39;;;;;;;;;;;;;;;27.00;46.90;100769.14;103351;1286;61379;-81
2023/06/24 03:14:05;;;;;;;;;;;;;;;27.00;46.87;100771.14;103404;1286;61296;-82
2023/06/24 03:16:30;;;;;;;;;;;;;;;27.00;47.02;100771.27;103343;1291;62586;-82
2023/06/24 03:18:56;;;;;;;;;;;;;;;27.00;46.92;100768.23;103472;1293;61356;-82
2023/06/24 03:21:28;;;;;;;;;;;;;;;27.01;46.90;100772.70;103335;1292;61402;-82
2023/06/24 03:23:54;;;;;;;;;;;;;;;27.00;47.11;100774.88;103361;1287;61467;-82
2023/06/24 03:26:19;;;;;;;;;;;;;;;27.01;46.95;100773.77;103377;1287;62605;-82
2023/06/24 03:28:45;;;;;;;;;;;;;;;27.01;47.03;100777.02;103430;1286;61345;-82
2023/06/24 03:31:10;;;;;;;;;;;;;;;27.01;47.03;100779.69;103368;1287;61392;-82
2023/06/24 03:33:36;;;;;;;;;;;;;;;27.01;47.04;100782.39;103170;1287;62559;-82
2023/06/24 03:36:02;;;;;;;;;;;;;;;27.01;46.97;100781.69;103351;1286;62205;-82
2023/06/24 03:38:27;;;;;;;;;;;;;;;27.01;47.09;100783.82;103412;1286;61392;-82
2023/06/24 03:40:53;;;;;;;;;;;;;;;27.01;47.02;100782.74;103420;1287;62450;-82
2023/06/24 03:43:19;;;;;;;;;;;;;;;27.01;47.09;100783.11;103323;1286;61467;-82
2023/06/24 03:45:44;;;;;;;;;;;;;;;27.01;47.14;100784.95;103358;1286;61355;-82
2023/06/24 03:48:10;;;;;;;;;;;;;;;27.01;46.81;100787.75;103476;1290;61313;-82
2023/06/24 03:50:35;;;;;;;;;;;;;;;27.02;47.18;100787.73;103185;1288;61440;-82
2023/06/24 03:53:01;;;;;;;;;;;;;;;27.01;47.25;100791.04;103317;1286;61473;-82
2023/06/24 03:55:26;;;;;;;;;;;;;;;27.02;47.02;100794.95;103421;1287;61398;-82
2023/06/24 03:57:52;;;;;;;;;;;;;;;27.02;46.97;100793.32;103378;1287;61401;-82
2023/06/24 04:00:20;;;;;;;;;;;;;;;27.02;47.07;100794.05;103210;1287;61822;-83
2023/06/24 04:02:46;;;;;;;;;;;;;;;27.02;47.10;100793.53;103339;1293;63730;-82
2023/06/24 04:05:11;;;;;;;;;;;;;;;27.01;47.00;100790.33;103409;1287;62483;-82
2023/06/24 04:07:37;;;;;;;;;;;;;;;27.02;47.10;100794.54;103369;1286;61411;-82
2023/06/24 04:10:10;;;;;;;;;;;;;;;27.02;47.01;100792.40;103389;1288;62501;-82
2023/06/24 04:12:36;;;;;;;;;;;;;;;27.02;47.17;100794.20;103345;1290;63624;-82
2023/06/24 04:15:03;;;;;;;;;;;;;;;27.03;47.21;100795.22;103423;1286;61411;-81
2023/06/24 04:17:29;;;;;;;;;;;;;;;27.03;47.05;100794.85;103386;1287;61441;-81
2023/06/24 04:19:54;;;;;;;;;;;;;;;27.04;47.15;100800.03;103381;1287;62218;-82
2023/06/24 04:22:20;;;;;;;;;;;;;;;27.03;46.97;100801.33;103361;1286;62079;-81
2023/06/24 04:24:46;;;;;;;;;;;;;;;27.04;46.89;100794.36;103327;1293;61333;-82
2023/06/24 04:27:11;;;;;;;;;;;;;;;27.05;46.97;100793.41;103427;1287;61900;-82
2023/06/24 04:29:37;;;;;;;;;;;;;;;27.05;47.19;100791.42;103346;1287;61408;-82
2023/06/24 04:32:02;;;;;;;;;;;;;;;27.05;47.01;100790.08;103338;1287;61494;-81
2023/06/24 04:34:28;;;;;;;;;;;;;;;27.05;47.05;100786.12;103367;1293;61397;-81
2023/06/24 04:36:54;;;;;;;;;;;;;;;27.06;46.94;100786.64;103355;1288;61395;-81
2023/06/24 04:39:20;;;;;;;;;;;;;;;27.07;46.81;100784.73;103311;1287;62553;-81
2023/06/24 04:41:46;;;;;;;;;;;;;;;27.07;46.90;100778.73;103469;1290;61430;-81
2023/06/24 04:44:12;;;;;;;;;;;;;;;27.08;47.05;100776.33;103445;1288;61233;-82
2023/06/24 04:46:39;;;;;;;;;;;;;;;27.08;47.16;100784.55;103366;1290;61402;-82
2023/06/24 04:49:05;;;;;;;;;;;;;;;27.09;47.14;100779.99;103400;1287;61331;-82
2023/06/24 04:51:30;;;;;;;;;;;;;;;27.10;47.03;100775.60;103350;1288;61471;-81
2023/06/24 04:53:56;;;;;;;;;;;;;;;27.09;46.94;100769.48;103440;1287;62265;-81
2023/06/24 04:56:21;;;;;;;;;;;;;;;27.10;47.07;100767.41;103306;1287;61850;-81
2023/06/24 04:58:47;;;;;;;;;;;;;;;27.12;47.08;100777.02;103403;1292;61417;-82
2023/06/24 05:01:13;;;;;;;;;;;;;;;27.13;46.95;100775.33;103410;1286;62478;-82
2023/06/24 05:03:39;;;;;;;;;;;;;;;27.13;46.88;100771.27;103330;1288;61453;-82
2023/06/24 05:06:04;;;;;;;;;;;;;;;27.14;46.96;100771.78;103232;1293;61367;-82
2023/06/24 05:08:29;;;;;;;;;;;;;;;27.15;47.13;100770.37;103420;1287;61385;-82
2023/06/24 05:10:55;;;;;;;;;;;;;;;27.16;47.04;100771.77;103345;1288;61471;-83
2023/06/24 05:13:20;;;;;;;;;;;;;;;27.17;47.13;100776.36;103192;1287;61398;-82
2023/06/24 05:15:46;;;;;;;;;;;;;;;27.18;47.02;100777.69;103449;1288;61325;-82
2023/06/24 05:18:11;;;;;;;;;;;;;;;27.18;47.05;100775.48;103390;1286;61412;-82
2023/06/24 05:20:37;;;;;;;;;;;;;;;27.19;47.08;100780.33;103132;1287;61418;-82
2023/06/24 05:23:02;;;;;;;;;;;;;;;27.20;47.08;100780.59;103427;1287;61284;-82
2023/06/24 05:25:28;;;;;;;;;;;;;;;27.20;47.05;100779.82;103399;1287;66530;-82
2023/06/24 05:27:54;;;;;;;;;;;;;;;27.21;46.87;100783.15;103332;1288;61414;-82
2023/06/24 05:30:19;;;;;;;;;;;;;;;27.22;47.03;100779.63;103377;1287;61825;-83
2023/06/24 05:32:44;;;;;;;;;;;;;;;27.22;47.09;100779.98;103343;1287;61404;-82
2023/06/24 05:35:10;;;;;;;;;;;;;;;27.23;47.23;100779.67;103413;1287;61343;-83
2023/06/24 05:37:35;;;;;;;;;;;;;;;27.24;47.21;100785.02;103394;1286;61434;-82
2023/06/24 05:40:02;;;;;;;;;;;;;;;27.24;46.98;100781.42;103397;1288;62079;-82
2023/06/24 05:42:27;;;;;;;;;;;;;;;27.25;47.07;100781.51;103402;1286;61321;-82
2023/06/24 05:44:53;;;;;;;;;;;;;;;27.25;47.05;100788.50;103314;1286;61415;-82
2023/06/24 05:47:18;;;;;;;;;;;;;;;27.27;46.98;100793.42;103387;1288;61396;-82
2023/06/24 05:49:44;;;;;;;;;;;;;;;27.28;47.21;100799.16;103324;1288;66555;-82
2023/06/24 05:52:09;;;;;;;;;;;;;;;27.28;46.96;100799.27;103364;1286;62474;-81
2023/06/24 05:54:35;;;;;;;;;;;;;;;27.29;46.95;100797.94;103375;1285;61363;-82
2023/06/24 05:57:00;;;;;;;;;;;;;;;27.30;47.01;100798.43;103350;1287;62446;-82
2023/06/24 05:59:25;;;;;;;;;;;;;;;27.30;46.87;100804.90;103410;1286;61428;-82
2023/06/24 06:01:51;;;;;;;;;;;;;;;27.31;46.88;100809.16;103132;1291;62579;-82
2023/06/24 06:04:16;;;;;;;;;;;;;;;27.31;47.09;100809.83;103352;1286;61454;-82
2023/06/24 06:06:42;;;;;;;;;;;;;;;27.32;46.95;100814.11;103362;1288;61392;-82
2023/06/24 06:09:09;;;;;;;;;;;;;;;27.31;47.23;100811.06;103347;1292;62011;-82
2023/06/24 06:11:34;;;;;;;;;;;;;;;27.33;46.98;100816.02;103341;1287;61424;-82
2023/06/24 06:14:00;;;;;;;;;;;;;;;27.33;46.86;100823.04;103433;1286;61392;-82
2023/06/24 06:16:25;;;;;;;;;;;;;;;27.34;47.11;100825.62;103439;1290;61376;-82
2023/06/24 06:18:51;;;;;;;;;;;;;;;27.34;46.88;100825.59;103524;1285;62004;-82
2023/06/24 06:21:16;;;;;;;;;;;;;;;27.35;47.06;100830.08;103535;1289;61402;-82
2023/06/24 06:23:41;;;;;;;;;;;;;;;27.35;46.94;100826.78;103568;1284;62456;-82
2023/06/24 06:26:07;;;;;;;;;;;;;;;27.36;47.04;100824.52;103478;1287;61392;-82
2023/06/24 06:28:32;;;;;;;;;;;;;;;27.36;47.07;100819.11;103607;1284;61373;-82
2023/06/24 06:30:58;;;;;;;;;;;;;;;27.36;47.24;100818.56;103457;1284;61446;-82
2023/06/24 06:33:23;;;;;;;;;;;;;;;27.37;47.15;100823.58;103460;1290;61363;-82
2023/06/24 06:35:48;;;;;;;;;;;;;;;27.37;47.10;100829.33;103498;1284;62453;-82
2023/06/24 06:38:14;;;;;;;;;;;;;;;27.38;47.17;100831.44;103497;1289;64553;-82
2023/06/24 06:40:40;;;;;;;;;;;;;;;27.39;46.99;100829.38;103532;1285;61370;-82
2023/06/24 06:43:06;;;;;;;;;;;;;;;27.38;47.11;100827.58;103408;1284;61364;-82
2023/06/24 06:45:31;;;;;;;;;;;;;;;27.39;47.08;100831.71;103309;1284;61401;-82
2023/06/24 06:47:57;;;;;;;;;;;;;;;27.39;46.87;100828.60;103445;1284;61393;-81
2023/06/24 06:50:22;;;;;;;;;;;;;;;27.39;47.30;100832.38;103368;1288;62639;-81
2023/06/24 06:52:47;;;;;;;;;;;;;;;27.40;46.94;100833.42;103398;1284;61437;-81
2023/06/24 06:55:13;;;;;;;;;;;;;;;27.40;47.12;100831.97;103475;1284;62520;-81
2023/06/24 06:57:38;;;;;;;;;;;;;;;27.40;47.15;100830.11;103467;1290;61355;-82
2023/06/24 07:00:05;;;;;;;;;;;;;;;27.40;47.16;100828.64;103438;1285;61411;-82
2023/06/24 07:02:30;;;;;;;;;;;;;;;27.40;47.23;100830.98;103340;1288;61409;-82
2023/06/24 07:04:56;;;;;;;;;;;;;;;27.40;47.24;100831.70;103461;1289;61303;-82
2023/06/24 07:07:21;;;;;;;;;;;;;;;27.41;47.08;100829.67;103351;1285;62572;-82
2023/06/24 07:09:47;;;;;;;;;;;;;;;27.41;47.24;100827.13;102814;1286;810951;-82
2023/06/24 07:12:13;;;;;;;;;;;;;;;27.41;47.36;100822.45;103510;1285;62553;-82
2023/06/24 07:14:39;;;;;;;;;;;;;;;27.41;47.10;100819.54;103362;1285;61304;-82
2023/06/24 07:17:04;;;;;;;;;;;;;;;27.41;47.15;100820.60;103588;1284;62063;-82
2023/06/24 07:19:30;;;;;;;;;;;;;;;27.41;47.00;100818.59;103474;1285;61394;-82
2023/06/24 07:21:56;;;;;;;;;;;;;;;27.41;47.08;100823.85;103495;1285;62335;-82
2023/06/24 07:24:21;;;;;;;;;;;;;;;27.41;46.99;100828.39;103378;1284;61398;-82
2023/06/24 07:26:47;;;;;;;;;;;;;;;27.41;47.06;100829.10;103354;1288;62758;-82
2023/06/24 07:29:12;;;;;;;;;;;;;;;27.41;47.25;100830.90;103475;1287;61411;-82
2023/06/24 07:31:39;;;;;;;;;;;;;;;27.41;47.08;100827.64;103441;1284;61406;-82
2023/06/24 07:34:05;;;;;;;;;;;;;;;27.41;47.02;100822.59;103261;1290;61353;-82
2023/06/24 07:36:31;;;;;;;;;;;;;;;27.41;47.07;100815.55;103381;1284;61466;-82
2023/06/24 07:38:56;;;;;;;;;;;;;;;27.41;47.16;100811.76;103366;1286;61392;-82
2023/06/24 07:41:22;;;;;;;;;;;;;;;27.41;47.11;100811.17;103456;1285;61398;-82
2023/06/24 07:43:47;;;;;;;;;;;;;;;27.42;47.11;100806.63;103515;1284;61415;-82
2023/06/24 07:46:13;;;;;;;;;;;;;;;27.41;46.89;100800.41;103587;1289;61391;-83
2023/06/24 07:48:38;;;;;;;;;;;;;;;27.42;47.15;100795.99;103393;1284;61401;-82
2023/06/24 07:51:03;;;;;;;;;;;;;;;27.41;47.04;100796.91;103521;1284;61405;-82
2023/06/24 07:53:29;;;;;;;;;;;;;;;27.42;47.00;100793.83;103516;1285;62304;-82
2023/06/24 07:55:54;;;;;;;;;;;;;;;27.42;47.01;100791.45;103470;1284;61526;-82
2023/06/24 07:58:20;;;;;;;;;;;;;;;27.42;47.24;100793.77;103387;1290;61402;-82
2023/06/24 08:00:45;;;;;;;;;;;;;;;27.42;47.01;100793.57;103379;1284;61875;-83
2023/06/24 08:03:12;;;;;;;;;;;;;;;27.42;47.14;100788.34;103386;1285;61520;-82
2023/06/24 08:05:38;;;;;;;;;;;;;;;27.42;47.27;100787.59;103484;1284;62060;-82
2023/06/24 08:08:04;;;;;;;;;;;;;;;27.42;47.22;100786.34;103457;1284;61375;-82
2023/06/24 08:10:30;;;;;;;;;;;;;;;27.42;47.24;100790.85;103379;1284;62693;-83
2023/06/24 08:12:56;;;;;;;;;;;;;;;27.42;46.95;100787.60;103472;1284;61314;-82
2023/06/24 08:15:21;;;;;;;;;;;;;;;27.43;47.14;100785.40;103573;1285;61410;-82
2023/06/24 08:17:53;;;;;;;;;;;;;;;27.42;47.29;100782.52;103354;1287;61266;-82
2023/06/24 08:20:22;;;;;;;;;;;;;;;27.42;47.26;100781.61;103401;1285;63640;-82
2023/06/24 08:22:48;;;;;;;;;;;;;;;27.43;47.29;100778.15;103450;1284;66875;-81
2023/06/24 08:25:13;;;;;;;;;;;;;;;27.43;47.10;100776.36;103386;1288;61394;-82
2023/06/24 08:27:39;;;;;;;;;;;;;;;27.43;47.14;100777.24;103250;1284;61412;-82
2023/06/24 08:30:05;;;;;;;;;;;;;;;27.43;47.23;100775.95;103484;1284;61379;-82
2023/06/24 08:32:31;;;;;;;;;;;;;;;27.43;47.31;100775.27;103376;1290;61411;-82
2023/06/24 08:34:57;;;;;;;;;;;;;;;27.43;47.18;100777.96;103445;1284;61482;-83
2023/06/24 08:37:22;;;;;;;;;;;;;;;27.44;47.26;100775.19;103459;1285;62414;-82
2023/06/24 08:39:47;;;;;;;;;;;;;;;27.43;47.33;100773.42;103382;1284;62050;-82
2023/06/24 08:42:13;;;;;;;;;;;;;;;27.44;47.29;100770.85;103449;1287;61385;-82
2023/06/24 08:44:38;;;;;;;;;;;;;;;27.44;47.24;100759.64;103379;1284;62403;-82
2023/06/24 08:47:04;;;;;;;;;;;;;;;27.43;47.27;100763.29;103522;1285;61456;-82
2023/06/24 08:49:29;;;;;;;;;;;;;;;27.44;47.31;100759.30;103374;1290;62456;-82
2023/06/24 08:51:55;;;;;;;;;;;;;;;27.44;47.13;100754.92;103612;1284;61303;-82
2023/06/24 08:54:20;;;;;;;;;;;;;;;27.45;47.24;100752.89;103514;1290;61387;-82
2023/06/24 08:56:46;;;;;;;;;;;;;;;27.45;47.14;100749.64;103393;1284;61424;-82
2023/06/24 08:59:12;;;;;;;;;;;;;;;27.44;47.11;100745.50;103608;1284;61357;-82
2023/06/24 09:01:37;;;;;;;;;;;;;;;27.45;47.25;100747.30;103389;1288;63007;-82
2023/06/24 09:04:03;;;;;;;;;;;;;;;27.45;47.18;100742.76;103383;1284;61440;-82
2023/06/24 09:06:30;;;;;;;;;;;;;;;27.45;47.08;100743.48;103433;1284;62320;-82
2023/06/24 09:08:55;;;;;;;;;;;;;;;27.44;47.25;100742.59;103396;1290;61450;-82
2023/06/24 09:11:27;;;;;;;;;;;;;;;27.44;47.27;100742.45;103377;1290;61332;-82
2023/06/24 09:13:56;;;;;;;;;;;;;;;27.45;47.28;100738.79;103506;1285;61408;-82
2023/06/24 09:16:22;;;;;;;;;;;;;;;27.45;47.28;100739.16;103372;1289;75243;-82
2023/06/24 09:18:49;;;;;;;;;;;;;;;27.44;47.15;100739.16;103398;1284;61482;-82
2023/06/24 09:21:30;;;;;;;;;;;;;;;27.45;47.17;100739.70;103516;1284;61870;-82
2023/06/24 09:23:56;;;;;;;;;;;;;;;27.44;47.12;100737.54;103363;1284;61325;-82
2023/06/24 09:26:25;;;;;;;;;;;;;;;27.45;47.35;100740.60;103378;1284;61389;-82
2023/06/24 09:28:51;;;;;;;;;;;;;;;27.45;47.25;100740.24;103428;1290;66684;-82
2023/06/24 09:31:16;;;;;;;;;;;;;;;27.45;47.24;100738.80;103371;1290;61323;-82
2023/06/24 09:33:44;;;;;;;;;;;;;;;27.45;47.09;100738.39;103337;1285;61406;-82
2023/06/24 09:36:15;;;;;;;;;;;;;;;27.46;47.19;100741.58;103357;1284;61364;-82
2023/06/24 09:38:42;;;;;;;;;;;;;;;27.45;47.15;100747.04;103430;1286;65764;-82
2023/06/24 09:41:08;;;;;;;;;;;;;;;27.45;46.98;100747.61;103477;1284;62467;-82
2023/06/24 09:43:34;;;;;;;;;;;;;;;27.46;47.14;100750.27;103425;1287;61382;-82
2023/06/24 09:46:01;;;;;;;;;;;;;;;27.45;47.31;100750.48;103468;1290;62491;-82
2023/06/24 09:48:26;;;;;;;;;;;;;;;27.45;47.30;100747.24;103401;1285;62312;-82
2023/06/24 09:50:52;;;;;;;;;;;;;;;27.46;47.22;100745.73;103397;1284;61420;-82
2023/06/24 09:53:17;;;;;;;;;;;;;;;27.46;47.14;100744.62;103400;1284;61398;-82
2023/06/24 09:55:46;;;;;;;;;;;;;;;27.46;47.24;100742.61;103626;1290;61406;-82
2023/06/24 09:58:11;;;;;;;;;;;;;;;27.46;47.26;100745.33;103909;1285;64641;-82
2023/06/24 10:00:37;;;;;;;;;;;;;;;27.46;47.02;100742.96;103773;1284;61347;-82
2023/06/24 10:03:02;;;;;;;;;;;;;;;27.46;47.15;100743.36;103731;1284;61402;-82
2023/06/24 10:05:28;;;;;;;;;;;;;;;27.46;47.17;100744.04;103536;1289;61410;-82
2023/06/24 10:07:54;;;;;;;;;;;;;;;27.47;47.25;100741.66;103483;1285;61395;-82
2023/06/24 10:10:19;;;;;;;;;;;;;;;27.47;47.43;100742.38;103487;1289;64656;-82
2023/06/24 10:12:44;;;;;;;;;;;;;;;27.46;47.31;100742.80;103513;1284;62665;-82
2023/06/24 10:15:10;;;;;;;;;;;;;;;27.46;47.17;100738.48;103453;1284;61391;-82
2023/06/24 10:17:36;;;;;;;;;;;;;;;27.46;47.16;100733.63;103519;1284;61383;-82
2023/06/24 10:20:06;;;;;;;;;;;;;;;27.46;47.18;100732.38;103689;1285;61843;-82
2023/06/24 10:22:32;;;;;;;;;;;;;;;27.46;47.22;100731.66;103872;1284;61293;-82
2023/06/24 10:25:00;;;;;;;;;;;;;;;27.46;47.23;100735.77;103850;1284;61440;-82
2023/06/24 10:27:27;;;;;;;;;;;;;;;27.46;47.01;100733.40;103926;1288;61296;-82
2023/06/24 10:29:55;;;;;;;;;;;;;;;27.46;47.01;100730.89;103677;1284;63796;-81
2023/06/24 10:32:21;;;;;;;;;;;;;;;27.46;47.09;100728.66;103534;1285;67140;-81
2023/06/24 10:34:47;;;;;;;;;;;;;;;27.47;47.13;100727.91;103595;1285;62616;-82
2023/06/24 10:37:14;;;;;;;;;;;;;;;27.48;47.21;100732.56;103475;1284;61379;-82
2023/06/24 10:39:49;;;;;;;;;;;;;;;27.47;47.27;100725.14;103686;1288;61382;-82
2023/06/24 10:42:34;;;;;;;;;;;;;;;27.48;47.14;100719.69;103521;1285;67055;-82
2023/06/24 10:45:13;;;;;;;;;;;;;;;27.48;47.25;100713.55;103562;1284;61278;-82
2023/06/24 10:47:42;;;;;;;;;;;;;;;27.47;47.06;100709.78;103602;1290;61796;-82
2023/06/24 10:50:09;;;;;;;;;;;;;;;27.47;47.11;100708.87;103558;1285;64048;-82
2023/06/24 10:52:38;;;;;;;;;;;;;;;27.48;47.33;100709.92;103457;1286;65686;-82
2023/06/24 10:55:04;;;;;;;;;;;;;;;27.47;47.24;100704.54;103488;1289;62470;-82
2023/06/24 10:57:30;;;;;;;;;;;;;;;27.48;47.30;100701.42;103561;1285;61320;-82
2023/06/24 10:59:56;;;;;;;;;;;;;;;27.47;47.30;100698.73;103469;1290;61404;-82
2023/06/24 11:02:22;;;;;;;;;;;;;;;27.48;47.20;100695.27;103430;1284;62583;-82
2023/06/24 11:04:49;;;;;;;;;;;;;;;27.48;47.24;100696.20;103592;1284;61369;-82
2023/06/24 11:07:14;;;;;;;;;;;;;;;27.48;47.16;100697.22;103641;1290;62488;-82
2023/06/24 11:09:40;;;;;;;;;;;;;;;27.48;47.23;100685.87;103602;1285;61419;-82
2023/06/24 11:12:06;;;;;;;;;;;;;;;27.48;47.10;100677.36;103556;1285;61401;-82
2023/06/24 11:14:36;;;;;;;;;;;;;;;27.48;47.13;100677.87;103453;1284;66990;-82
2023/06/24 11:17:02;;;;;;;;;;;;;;;27.48;47.05;100677.49;103572;1286;61747;-83
2023/06/24 11:19:27;;;;;;;;;;;;;;;27.49;47.14;100673.13;103410;1284;61399;-83
2023/06/24 11:21:53;;;;;;;;;;;;;;;27.50;47.10;100669.61;103517;1290;62037;-83
2023/06/24 11:24:18;;;;;;;;;;;;;;;27.50;47.28;100665.10;103496;1285;62532;-82
2023/06/24 11:26:45;;;;;;;;;;;;;;;27.49;47.03;100662.77;103534;1285;61376;-83
2023/06/24 11:29:11;;;;;;;;;;;;;;;27.49;47.07;100658.99;103528;1285;61325;-82
2023/06/24 11:31:37;;;;;;;;;;;;;;;27.50;46.94;100662.55;103585;1285;61321;-82
2023/06/24 11:34:03;;;;;;;;;;;;;;;27.49;47.19;100657.89;103517;1290;62427;-82
2023/06/24 11:36:29;;;;;;;;;;;;;;;27.49;46.99;100654.45;103492;1285;61392;-82
2023/06/24 11:38:54;;;;;;;;;;;;;;;27.49;47.22;100655.01;103357;1284;62517;-83
2023/06/24 11:41:20;;;;;;;;;;;;;;;27.49;46.99;100646.16;103320;1288;61318;-82
2023/06/24 11:43:46;;;;;;;;;;;;;;;27.50;47.03;100646.06;103394;1288;61411;-82
2023/06/24 11:46:27;;;;;;;;;;;;;;;27.50;46.92;100644.98;103436;1284;63665;-82
2023/06/24 11:49:02;;;;;;;;;;;;;;;27.51;46.99;100642.75;103439;1288;65832;-82
2023/06/24 11:51:27;;;;;;;;;;;;;;;27.50;47.03;100638.07;103383;1290;61370;-82
2023/06/24 11:53:53;;;;;;;;;;;;;;;27.50;47.03;100635.36;103422;1285;61773;-82
2023/06/24 11:56:18;;;;;;;;;;;;;;;27.50;46.91;100629.58;103402;1290;61569;-83
2023/06/24 11:58:44;;;;;;;;;;;;;;;27.51;46.91;100629.88;103381;1290;61402;-83
2023/06/24 12:01:10;;;;;;;;;;;;;;;27.52;46.99;100625.30;103384;1284;62454;-83
2023/06/24 12:03:35;;;;;;;;;;;;;;;27.52;46.95;100621.85;103494;1285;61363;-82
2023/06/24 12:06:01;;;;;;;;;;;;;;;27.52;46.92;100618.23;103492;1290;62203;-82
2023/06/24 12:08:26;;;;;;;;;;;;;;;27.52;47.04;100618.41;103384;1285;61381;-82
2023/06/24 12:10:52;;;;;;;;;;;;;;;27.53;46.76;100616.89;103356;1290;61433;-81
2023/06/24 12:13:17;;;;;;;;;;;;;;;27.53;46.97;100610.00;103446;1290;61404;-82
2023/06/24 12:15:43;;;;;;;;;;;;;;;27.53;46.85;100605.66;103365;1284;61380;-82
2023/06/24 12:18:09;;;;;;;;;;;;;;;27.53;46.86;100600.76;103369;1290;62032;-82
2023/06/24 12:20:36;;;;;;;;;;;;;;;27.53;46.84;100600.88;103264;1285;61360;-83